sensor_id;sensor_type;location;lat;lon;timestamp;P1;durP1;ratioP1;P2;durP2;ratioP2
16922;SDS011;8578;50.938;13.556;2023-11-18T00:01:09;5.40;;;2.97;;
16922;SDS011;8578;50.938;13.556;2023-11-18T00:03:37;4.23;;;2.97;;
16922;SDS011;8578;50.938;13.556;2023-11-18T00:06:07;4.00;;;2.80;;
16922;SDS011;8578;50.938;13.556;2023-11-18T00:08:35;4.77;;;3.63;;
16922;SDS011;8578;50.938;13.556;2023-11-18T00:11:03;5.90;;;3.50;;
16922;SDS011;8578;50.938;13.556;2023-11-18T00:13:31;5.30;;;3.70;;
16922;SDS011;8578;50.938;13.556;2023-11-18T00:15:58;6.17;;;3.87;;
16922;SDS011;8578;50.938;13.556;2023-11-18T00:18:26;7.33;;;4.07;;
16922;SDS011;8578;50.938;13.556;2023-11-18T00:20:54;5.43;;;3.10;;
16922;SDS011;8578;50.938;13.556;2023-11-18T00:23:24;6.53;;;3.57;;
16922;SDS011;8578;50.938;13.556;2023-11-18T00:25:52;4.70;;;3.13;;
16922;SDS011;8578;50.938;13.556;2023-11-18T00:28:20;6.30;;;3.70;;
16922;SDS011;8578;50.938;13.556;2023-11-18T00:30:48;5.40;;;3.40;;
16922;SDS011;8578;50.938;13.556;2023-11-18T00:33:16;6.87;;;3.50;;
16922;SDS011;8578;50.938;13.556;2023-11-18T00:35:44;5.80;;;3.67;;
16922;SDS011;8578;50.938;13.556;2023-11-18T00:38:12;6.07;;;3.50;;
16922;SDS011;8578;50.938;13.556;2023-11-18T00:40:41;6.13;;;3.63;;
16922;SDS011;8578;50.938;13.556;2023-11-18T00:43:09;4.73;;;3.23;;
16922;SDS011;8578;50.938;13.556;2023-11-18T00:45:36;4.77;;;2.33;;
16922;SDS011;8578;50.938;13.556;2023-11-18T00:48:04;4.13;;;2.77;;
16922;SDS011;8578;50.938;13.556;2023-11-18T00:50:32;4.80;;;3.17;;
16922;SDS011;8578;50.938;13.556;2023-11-18T00:53:01;3.00;;;2.07;;
16922;SDS011;8578;50.938;13.556;2023-11-18T00:55:29;5.07;;;3.37;;
16922;SDS011;8578;50.938;13.556;2023-11-18T00:57:59;2.90;;;1.97;;
16922;SDS011;8578;50.938;13.556;2023-11-18T01:00:27;3.23;;;2.10;;
16922;SDS011;8578;50.938;13.556;2023-11-18T01:02:55;5.43;;;2.73;;
16922;SDS011;8578;50.938;13.556;2023-11-18T01:05:23;4.60;;;1.93;;
16922;SDS011;8578;50.938;13.556;2023-11-18T01:07:50;5.40;;;3.30;;
16922;SDS011;8578;50.938;13.556;2023-11-18T01:10:18;7.83;;;3.70;;
16922;SDS011;8578;50.938;13.556;2023-11-18T01:12:47;4.27;;;3.00;;
16922;SDS011;8578;50.938;13.556;2023-11-18T01:15:15;6.23;;;3.20;;
16922;SDS011;8578;50.938;13.556;2023-11-18T01:17:43;4.73;;;2.50;;
16922;SDS011;8578;50.938;13.556;2023-11-18T01:20:13;3.80;;;2.60;;
16922;SDS011;8578;50.938;13.556;2023-11-18T01:22:48;5.00;;;3.00;;
16922;SDS011;8578;50.938;13.556;2023-11-18T01:25:16;2.83;;;1.77;;
16922;SDS011;8578;50.938;13.556;2023-11-18T01:27:45;3.37;;;2.63;;
16922;SDS011;8578;50.938;13.556;2023-11-18T01:30:15;7.80;;;4.00;;
16922;SDS011;8578;50.938;13.556;2023-11-18T01:32:43;5.23;;;3.07;;
16922;SDS011;8578;50.938;13.556;2023-11-18T01:35:10;5.63;;;3.73;;
16922;SDS011;8578;50.938;13.556;2023-11-18T01:37:38;6.33;;;3.50;;
16922;SDS011;8578;50.938;13.556;2023-11-18T01:40:07;5.13;;;3.53;;
16922;SDS011;8578;50.938;13.556;2023-11-18T01:42:34;6.10;;;3.63;;
16922;SDS011;8578;50.938;13.556;2023-11-18T01:45:03;5.73;;;3.37;;
16922;SDS011;8578;50.938;13.556;2023-11-18T01:47:33;5.43;;;3.33;;
16922;SDS011;8578;50.938;13.556;2023-11-18T01:50:01;7.77;;;4.03;;
16922;SDS011;8578;50.938;13.556;2023-11-18T01:52:32;4.77;;;1.67;;
16922;SDS011;8578;50.938;13.556;2023-11-18T01:55:00;7.33;;;4.03;;
16922;SDS011;8578;50.938;13.556;2023-11-18T01:57:27;6.13;;;3.60;;
16922;SDS011;8578;50.938;13.556;2023-11-18T01:59:55;5.93;;;4.00;;
16922;SDS011;8578;50.938;13.556;2023-11-18T02:02:23;8.20;;;4.07;;
16922;SDS011;8578;50.938;13.556;2023-11-18T02:04:52;7.20;;;3.53;;
16922;SDS011;8578;50.938;13.556;2023-11-18T02:07:21;5.73;;;3.80;;
16922;SDS011;8578;50.938;13.556;2023-11-18T02:09:50;6.27;;;3.97;;
16922;SDS011;8578;50.938;13.556;2023-11-18T02:12:19;6.33;;;3.17;;
16922;SDS011;8578;50.938;13.556;2023-11-18T02:14:49;7.53;;;4.00;;
16922;SDS011;8578;50.938;13.556;2023-11-18T02:17:17;7.13;;;4.00;;
16922;SDS011;8578;50.938;13.556;2023-11-18T02:19:45;7.03;;;3.87;;
16922;SDS011;8578;50.938;13.556;2023-11-18T02:22:15;7.27;;;4.47;;
16922;SDS011;8578;50.938;13.556;2023-11-18T02:24:42;6.00;;;3.93;;
16922;SDS011;8578;50.938;13.556;2023-11-18T02:27:11;7.37;;;3.90;;
16922;SDS011;8578;50.938;13.556;2023-11-18T02:29:42;6.30;;;3.73;;
16922;SDS011;8578;50.938;13.556;2023-11-18T02:32:13;7.20;;;3.57;;
16922;SDS011;8578;50.938;13.556;2023-11-18T02:34:45;4.33;;;2.13;;
16922;SDS011;8578;50.938;13.556;2023-11-18T02:37:16;6.67;;;3.77;;
16922;SDS011;8578;50.938;13.556;2023-11-18T02:39:45;6.43;;;4.00;;
16922;SDS011;8578;50.938;13.556;2023-11-18T02:42:17;6.33;;;3.90;;
16922;SDS011;8578;50.938;13.556;2023-11-18T02:44:44;6.03;;;3.87;;
16922;SDS011;8578;50.938;13.556;2023-11-18T02:47:15;6.30;;;3.27;;
16922;SDS011;8578;50.938;13.556;2023-11-18T02:49:43;6.77;;;3.47;;
16922;SDS011;8578;50.938;13.556;2023-11-18T02:52:10;5.37;;;3.43;;
16922;SDS011;8578;50.938;13.556;2023-11-18T02:54:38;6.77;;;3.63;;
16922;SDS011;8578;50.938;13.556;2023-11-18T02:57:07;6.23;;;3.53;;
16922;SDS011;8578;50.938;13.556;2023-11-18T02:59:36;5.87;;;3.47;;
16922;SDS011;8578;50.938;13.556;2023-11-18T03:02:05;6.17;;;3.60;;
16922;SDS011;8578;50.938;13.556;2023-11-18T03:04:33;8.37;;;3.53;;
16922;SDS011;8578;50.938;13.556;2023-11-18T03:07:00;5.93;;;3.23;;
16922;SDS011;8578;50.938;13.556;2023-11-18T03:09:28;6.17;;;3.70;;
16922;SDS011;8578;50.938;13.556;2023-11-18T03:11:55;4.97;;;2.90;;
16922;SDS011;8578;50.938;13.556;2023-11-18T03:14:23;5.80;;;3.30;;
16922;SDS011;8578;50.938;13.556;2023-11-18T03:16:52;5.53;;;3.33;;
16922;SDS011;8578;50.938;13.556;2023-11-18T03:19:22;5.83;;;3.67;;
16922;SDS011;8578;50.938;13.556;2023-11-18T03:21:50;6.50;;;3.60;;
16922;SDS011;8578;50.938;13.556;2023-11-18T03:24:19;5.07;;;3.60;;
16922;SDS011;8578;50.938;13.556;2023-11-18T03:26:48;4.57;;;3.10;;
16922;SDS011;8578;50.938;13.556;2023-11-18T03:29:15;5.73;;;3.33;;
16922;SDS011;8578;50.938;13.556;2023-11-18T03:31:43;4.23;;;2.93;;
16922;SDS011;8578;50.938;13.556;2023-11-18T03:34:16;6.63;;;3.73;;
16922;SDS011;8578;50.938;13.556;2023-11-18T03:36:44;7.83;;;3.63;;
16922;SDS011;8578;50.938;13.556;2023-11-18T03:39:11;5.87;;;3.20;;
16922;SDS011;8578;50.938;13.556;2023-11-18T03:41:39;6.20;;;3.53;;
16922;SDS011;8578;50.938;13.556;2023-11-18T03:44:06;8.73;;;3.70;;
16922;SDS011;8578;50.938;13.556;2023-11-18T03:46:34;5.13;;;3.17;;
16922;SDS011;8578;50.938;13.556;2023-11-18T03:49:02;5.93;;;3.30;;
16922;SDS011;8578;50.938;13.556;2023-11-18T03:51:31;6.87;;;3.57;;
16922;SDS011;8578;50.938;13.556;2023-11-18T03:53:59;5.40;;;3.10;;
16922;SDS011;8578;50.938;13.556;2023-11-18T03:56:28;6.80;;;3.57;;
16922;SDS011;8578;50.938;13.556;2023-11-18T03:58:55;5.93;;;3.80;;
16922;SDS011;8578;50.938;13.556;2023-11-18T04:01:24;6.60;;;3.73;;
16922;SDS011;8578;50.938;13.556;2023-11-18T04:03:53;7.83;;;3.40;;
16922;SDS011;8578;50.938;13.556;2023-11-18T04:06:21;6.20;;;3.47;;
16922;SDS011;8578;50.938;13.556;2023-11-18T04:08:51;8.03;;;3.83;;
16922;SDS011;8578;50.938;13.556;2023-11-18T04:11:21;6.63;;;3.57;;
16922;SDS011;8578;50.938;13.556;2023-11-18T04:13:49;5.50;;;3.27;;
16922;SDS011;8578;50.938;13.556;2023-11-18T04:16:17;7.47;;;3.50;;
16922;SDS011;8578;50.938;13.556;2023-11-18T04:18:45;6.03;;;3.27;;
16922;SDS011;8578;50.938;13.556;2023-11-18T04:21:14;6.87;;;3.33;;
16922;SDS011;8578;50.938;13.556;2023-11-18T04:23:42;8.17;;;3.33;;
16922;SDS011;8578;50.938;13.556;2023-11-18T04:26:11;5.43;;;2.83;;
16922;SDS011;8578;50.938;13.556;2023-11-18T04:28:39;6.03;;;3.03;;
16922;SDS011;8578;50.938;13.556;2023-11-18T04:31:07;7.63;;;3.90;;
16922;SDS011;8578;50.938;13.556;2023-11-18T04:33:34;4.93;;;2.90;;
16922;SDS011;8578;50.938;13.556;2023-11-18T04:36:03;6.87;;;3.57;;
16922;SDS011;8578;50.938;13.556;2023-11-18T04:38:32;6.20;;;3.80;;
16922;SDS011;8578;50.938;13.556;2023-11-18T04:41:01;6.70;;;3.33;;
16922;SDS011;8578;50.938;13.556;2023-11-18T04:43:31;6.63;;;3.27;;
16922;SDS011;8578;50.938;13.556;2023-11-18T04:46:10;7.60;;;3.90;;
16922;SDS011;8578;50.938;13.556;2023-11-18T04:48:39;7.33;;;3.93;;
16922;SDS011;8578;50.938;13.556;2023-11-18T04:51:08;6.37;;;3.37;;
16922;SDS011;8578;50.938;13.556;2023-11-18T04:53:35;5.97;;;3.57;;
16922;SDS011;8578;50.938;13.556;2023-11-18T04:56:04;5.63;;;3.57;;
16922;SDS011;8578;50.938;13.556;2023-11-18T04:58:34;6.77;;;3.47;;
16922;SDS011;8578;50.938;13.556;2023-11-18T05:01:02;6.53;;;3.83;;
16922;SDS011;8578;50.938;13.556;2023-11-18T05:03:30;5.80;;;3.50;;
16922;SDS011;8578;50.938;13.556;2023-11-18T05:05:59;6.87;;;3.50;;
16922;SDS011;8578;50.938;13.556;2023-11-18T05:08:26;6.63;;;3.87;;
16922;SDS011;8578;50.938;13.556;2023-11-18T05:10:54;5.47;;;2.50;;
16922;SDS011;8578;50.938;13.556;2023-11-18T05:13:21;4.67;;;3.00;;
16922;SDS011;8578;50.938;13.556;2023-11-18T05:15:51;5.20;;;2.70;;
16922;SDS011;8578;50.938;13.556;2023-11-18T05:18:20;6.43;;;3.27;;
16922;SDS011;8578;50.938;13.556;2023-11-18T05:20:48;5.20;;;3.17;;
16922;SDS011;8578;50.938;13.556;2023-11-18T05:23:15;4.53;;;2.73;;
16922;SDS011;8578;50.938;13.556;2023-11-18T05:25:43;5.27;;;3.40;;
16922;SDS011;8578;50.938;13.556;2023-11-18T05:28:10;5.63;;;3.27;;
16922;SDS011;8578;50.938;13.556;2023-11-18T05:30:40;7.57;;;3.53;;
16922;SDS011;8578;50.938;13.556;2023-11-18T05:33:11;5.53;;;3.10;;
16922;SDS011;8578;50.938;13.556;2023-11-18T05:35:43;6.10;;;2.83;;
16922;SDS011;8578;50.938;13.556;2023-11-18T05:38:16;6.23;;;3.70;;
16922;SDS011;8578;50.938;13.556;2023-11-18T05:40:47;5.63;;;2.60;;
16922;SDS011;8578;50.938;13.556;2023-11-18T05:43:22;5.80;;;3.33;;
16922;SDS011;8578;50.938;13.556;2023-11-18T05:45:52;6.60;;;4.10;;
16922;SDS011;8578;50.938;13.556;2023-11-18T05:48:42;6.10;;;3.80;;
16922;SDS011;8578;50.938;13.556;2023-11-18T05:51:10;13.17;;;4.27;;
16922;SDS011;8578;50.938;13.556;2023-11-18T05:53:39;6.03;;;3.63;;
16922;SDS011;8578;50.938;13.556;2023-11-18T05:56:07;4.80;;;3.27;;
16922;SDS011;8578;50.938;13.556;2023-11-18T05:58:35;5.87;;;3.40;;
16922;SDS011;8578;50.938;13.556;2023-11-18T06:01:03;5.70;;;3.47;;
16922;SDS011;8578;50.938;13.556;2023-11-18T06:03:32;6.00;;;2.97;;
16922;SDS011;8578;50.938;13.556;2023-11-18T06:06:01;5.03;;;3.13;;
16922;SDS011;8578;50.938;13.556;2023-11-18T06:08:30;6.90;;;3.67;;
16922;SDS011;8578;50.938;13.556;2023-11-18T06:10:58;5.77;;;3.33;;
16922;SDS011;8578;50.938;13.556;2023-11-18T06:13:26;5.87;;;3.33;;
16922;SDS011;8578;50.938;13.556;2023-11-18T06:15:54;5.27;;;3.07;;
16922;SDS011;8578;50.938;13.556;2023-11-18T06:18:21;5.07;;;2.97;;
16922;SDS011;8578;50.938;13.556;2023-11-18T06:20:50;7.77;;;3.27;;
16922;SDS011;8578;50.938;13.556;2023-11-18T06:23:18;5.23;;;2.70;;
16922;SDS011;8578;50.938;13.556;2023-11-18T06:25:47;5.33;;;3.30;;
16922;SDS011;8578;50.938;13.556;2023-11-18T06:28:15;5.07;;;3.37;;
16922;SDS011;8578;50.938;13.556;2023-11-18T06:30:43;6.03;;;3.17;;
16922;SDS011;8578;50.938;13.556;2023-11-18T06:33:10;6.63;;;3.80;;
16922;SDS011;8578;50.938;13.556;2023-11-18T06:35:39;6.67;;;3.23;;
16922;SDS011;8578;50.938;13.556;2023-11-18T06:38:07;5.67;;;3.57;;
16922;SDS011;8578;50.938;13.556;2023-11-18T06:40:40;6.10;;;3.83;;
16922;SDS011;8578;50.938;13.556;2023-11-18T06:43:09;5.77;;;3.60;;
16922;SDS011;8578;50.938;13.556;2023-11-18T06:45:39;7.50;;;4.17;;
16922;SDS011;8578;50.938;13.556;2023-11-18T06:48:09;6.50;;;4.20;;
16922;SDS011;8578;50.938;13.556;2023-11-18T06:50:37;6.90;;;3.97;;
16922;SDS011;8578;50.938;13.556;2023-11-18T06:53:05;6.47;;;4.07;;
16922;SDS011;8578;50.938;13.556;2023-11-18T06:55:34;6.77;;;3.77;;
16922;SDS011;8578;50.938;13.556;2023-11-18T06:58:03;7.33;;;4.30;;
16922;SDS011;8578;50.938;13.556;2023-11-18T07:00:31;7.43;;;4.27;;
16922;SDS011;8578;50.938;13.556;2023-11-18T07:02:59;8.03;;;4.60;;
16922;SDS011;8578;50.938;13.556;2023-11-18T07:05:27;8.70;;;4.10;;
16922;SDS011;8578;50.938;13.556;2023-11-18T07:07:55;7.57;;;4.17;;
16922;SDS011;8578;50.938;13.556;2023-11-18T07:10:23;7.70;;;4.03;;
16922;SDS011;8578;50.938;13.556;2023-11-18T07:12:53;7.73;;;4.40;;
16922;SDS011;8578;50.938;13.556;2023-11-18T07:15:21;9.37;;;4.43;;
16922;SDS011;8578;50.938;13.556;2023-11-18T07:17:49;6.93;;;4.27;;
16922;SDS011;8578;50.938;13.556;2023-11-18T07:20:21;6.60;;;3.87;;
16922;SDS011;8578;50.938;13.556;2023-11-18T07:22:49;7.47;;;4.23;;
16922;SDS011;8578;50.938;13.556;2023-11-18T07:25:17;6.90;;;3.90;;
16922;SDS011;8578;50.938;13.556;2023-11-18T07:27:45;7.40;;;3.80;;
16922;SDS011;8578;50.938;13.556;2023-11-18T07:30:13;7.07;;;4.10;;
16922;SDS011;8578;50.938;13.556;2023-11-18T07:32:42;6.37;;;4.40;;
16922;SDS011;8578;50.938;13.556;2023-11-18T07:35:10;7.00;;;4.10;;
16922;SDS011;8578;50.938;13.556;2023-11-18T07:37:38;6.97;;;4.27;;
16922;SDS011;8578;50.938;13.556;2023-11-18T07:40:06;6.87;;;3.80;;
16922;SDS011;8578;50.938;13.556;2023-11-18T07:42:38;6.43;;;3.47;;
16922;SDS011;8578;50.938;13.556;2023-11-18T07:45:07;6.73;;;4.00;;
16922;SDS011;8578;50.938;13.556;2023-11-18T07:47:45;7.13;;;4.10;;
16922;SDS011;8578;50.938;13.556;2023-11-18T07:50:15;7.00;;;4.37;;
16922;SDS011;8578;50.938;13.556;2023-11-18T07:52:43;6.03;;;3.50;;
16922;SDS011;8578;50.938;13.556;2023-11-18T07:55:10;7.17;;;4.20;;
16922;SDS011;8578;50.938;13.556;2023-11-18T07:57:38;5.33;;;3.37;;
16922;SDS011;8578;50.938;13.556;2023-11-18T08:00:06;7.87;;;4.33;;
16922;SDS011;8578;50.938;13.556;2023-11-18T08:02:41;5.90;;;3.60;;
16922;SDS011;8578;50.938;13.556;2023-11-18T08:05:12;7.00;;;3.63;;
16922;SDS011;8578;50.938;13.556;2023-11-18T08:07:42;6.37;;;3.40;;
16922;SDS011;8578;50.938;13.556;2023-11-18T08:10:11;7.77;;;3.80;;
16922;SDS011;8578;50.938;13.556;2023-11-18T08:12:39;6.80;;;4.03;;
16922;SDS011;8578;50.938;13.556;2023-11-18T08:15:07;6.17;;;3.60;;
16922;SDS011;8578;50.938;13.556;2023-11-18T08:17:35;7.27;;;4.00;;
16922;SDS011;8578;50.938;13.556;2023-11-18T08:20:03;9.53;;;4.20;;
16922;SDS011;8578;50.938;13.556;2023-11-18T08:22:36;8.10;;;4.03;;
16922;SDS011;8578;50.938;13.556;2023-11-18T08:25:04;7.67;;;3.90;;
16922;SDS011;8578;50.938;13.556;2023-11-18T08:27:35;6.97;;;4.07;;
16922;SDS011;8578;50.938;13.556;2023-11-18T08:30:04;9.77;;;4.87;;
16922;SDS011;8578;50.938;13.556;2023-11-18T08:32:37;10.97;;;5.33;;
16922;SDS011;8578;50.938;13.556;2023-11-18T08:35:06;10.67;;;5.47;;
16922;SDS011;8578;50.938;13.556;2023-11-18T08:37:35;9.90;;;5.47;;
16922;SDS011;8578;50.938;13.556;2023-11-18T08:40:03;9.77;;;5.03;;
16922;SDS011;8578;50.938;13.556;2023-11-18T08:42:32;9.03;;;5.10;;
16922;SDS011;8578;50.938;13.556;2023-11-18T08:45:01;9.80;;;5.60;;
16922;SDS011;8578;50.938;13.556;2023-11-18T08:47:31;11.20;;;6.70;;
16922;SDS011;8578;50.938;13.556;2023-11-18T08:49:59;12.57;;;6.17;;
16922;SDS011;8578;50.938;13.556;2023-11-18T08:52:39;11.33;;;6.27;;
16922;SDS011;8578;50.938;13.556;2023-11-18T08:55:10;10.63;;;5.83;;
16922;SDS011;8578;50.938;13.556;2023-11-18T08:57:44;12.17;;;5.50;;
16922;SDS011;8578;50.938;13.556;2023-11-18T09:00:30;13.70;;;5.20;;
16922;SDS011;8578;50.938;13.556;2023-11-18T09:03:16;8.07;;;4.67;;
16922;SDS011;8578;50.938;13.556;2023-11-18T09:05:53;9.73;;;4.90;;
16922;SDS011;8578;50.938;13.556;2023-11-18T09:08:32;7.60;;;4.17;;
16922;SDS011;8578;50.938;13.556;2023-11-18T09:11:02;10.50;;;4.40;;
16922;SDS011;8578;50.938;13.556;2023-11-18T09:13:31;10.00;;;4.80;;
16922;SDS011;8578;50.938;13.556;2023-11-18T09:16:01;9.17;;;4.33;;
16922;SDS011;8578;50.938;13.556;2023-11-18T09:18:29;7.17;;;4.07;;
16922;SDS011;8578;50.938;13.556;2023-11-18T09:21:00;8.50;;;4.23;;
16922;SDS011;8578;50.938;13.556;2023-11-18T09:23:29;8.57;;;4.23;;
16922;SDS011;8578;50.938;13.556;2023-11-18T09:26:00;6.80;;;3.53;;
16922;SDS011;8578;50.938;13.556;2023-11-18T09:28:27;5.87;;;3.40;;
16922;SDS011;8578;50.938;13.556;2023-11-18T09:30:56;7.67;;;3.37;;
16922;SDS011;8578;50.938;13.556;2023-11-18T09:33:25;5.80;;;3.57;;
16922;SDS011;8578;50.938;13.556;2023-11-18T09:35:55;5.93;;;3.20;;
16922;SDS011;8578;50.938;13.556;2023-11-18T09:38:26;7.07;;;3.67;;
16922;SDS011;8578;50.938;13.556;2023-11-18T09:40:55;6.40;;;3.13;;
16922;SDS011;8578;50.938;13.556;2023-11-18T09:43:25;7.83;;;2.90;;
16922;SDS011;8578;50.938;13.556;2023-11-18T09:45:54;6.63;;;3.60;;
16922;SDS011;8578;50.938;13.556;2023-11-18T09:48:22;5.50;;;2.73;;
16922;SDS011;8578;50.938;13.556;2023-11-18T09:50:52;6.10;;;2.53;;
16922;SDS011;8578;50.938;13.556;2023-11-18T09:53:20;3.30;;;2.00;;
16922;SDS011;8578;50.938;13.556;2023-11-18T09:55:54;4.50;;;2.60;;
16922;SDS011;8578;50.938;13.556;2023-11-18T09:58:32;3.80;;;1.83;;
16922;SDS011;8578;50.938;13.556;2023-11-18T10:01:07;3.67;;;1.77;;
16922;SDS011;8578;50.938;13.556;2023-11-18T10:03:40;1.97;;;1.47;;
16922;SDS011;8578;50.938;13.556;2023-11-18T10:06:11;1.73;;;1.20;;
16922;SDS011;8578;50.938;13.556;2023-11-18T10:08:40;2.40;;;1.50;;
16922;SDS011;8578;50.938;13.556;2023-11-18T10:11:13;6.47;;;1.27;;
16922;SDS011;8578;50.938;13.556;2023-11-18T10:13:42;1.80;;;1.37;;
16922;SDS011;8578;50.938;13.556;2023-11-18T10:16:10;2.43;;;1.60;;
16922;SDS011;8578;50.938;13.556;2023-11-18T10:18:38;3.83;;;1.47;;
16922;SDS011;8578;50.938;13.556;2023-11-18T10:21:15;2.10;;;1.40;;
16922;SDS011;8578;50.938;13.556;2023-11-18T10:24:00;2.47;;;1.53;;
16922;SDS011;8578;50.938;13.556;2023-11-18T10:26:28;2.03;;;1.50;;
16922;SDS011;8578;50.938;13.556;2023-11-18T10:29:02;3.87;;;1.60;;
16922;SDS011;8578;50.938;13.556;2023-11-18T10:31:34;2.27;;;1.30;;
16922;SDS011;8578;50.938;13.556;2023-11-18T10:34:02;4.43;;;2.57;;
16922;SDS011;8578;50.938;13.556;2023-11-18T10:36:31;3.57;;;2.13;;
16922;SDS011;8578;50.938;13.556;2023-11-18T10:38:59;2.70;;;1.90;;
16922;SDS011;8578;50.938;13.556;2023-11-18T10:41:39;4.77;;;2.50;;
16922;SDS011;8578;50.938;13.556;2023-11-18T10:44:10;3.97;;;2.40;;
16922;SDS011;8578;50.938;13.556;2023-11-18T10:46:42;7.00;;;2.97;;
16922;SDS011;8578;50.938;13.556;2023-11-18T10:49:19;5.33;;;3.03;;
16922;SDS011;8578;50.938;13.556;2023-11-18T10:51:47;4.67;;;2.90;;
16922;SDS011;8578;50.938;13.556;2023-11-18T10:54:15;6.80;;;3.10;;
16922;SDS011;8578;50.938;13.556;2023-11-18T10:56:46;5.67;;;3.60;;
16922;SDS011;8578;50.938;13.556;2023-11-18T10:59:15;4.80;;;3.00;;
16922;SDS011;8578;50.938;13.556;2023-11-18T11:01:46;4.80;;;3.13;;
16922;SDS011;8578;50.938;13.556;2023-11-18T11:04:16;6.37;;;3.50;;
16922;SDS011;8578;50.938;13.556;2023-11-18T11:06:47;5.73;;;3.10;;
16922;SDS011;8578;50.938;13.556;2023-11-18T11:09:24;4.77;;;3.17;;
16922;SDS011;8578;50.938;13.556;2023-11-18T11:11:55;6.00;;;3.33;;
16922;SDS011;8578;50.938;13.556;2023-11-18T11:14:29;6.27;;;3.60;;
16922;SDS011;8578;50.938;13.556;2023-11-18T11:17:04;7.93;;;4.07;;
16922;SDS011;8578;50.938;13.556;2023-11-18T11:19:38;4.63;;;2.70;;
16922;SDS011;8578;50.938;13.556;2023-11-18T11:22:15;5.07;;;2.40;;
16922;SDS011;8578;50.938;13.556;2023-11-18T11:24:54;3.73;;;2.10;;
16922;SDS011;8578;50.938;13.556;2023-11-18T11:27:28;4.43;;;2.27;;
16922;SDS011;8578;50.938;13.556;2023-11-18T11:30:08;2.97;;;2.33;;
16922;SDS011;8578;50.938;13.556;2023-11-18T11:32:39;5.23;;;2.67;;
16922;SDS011;8578;50.938;13.556;2023-11-18T11:35:10;4.70;;;2.90;;
16922;SDS011;8578;50.938;13.556;2023-11-18T11:37:45;4.47;;;3.13;;
16922;SDS011;8578;50.938;13.556;2023-11-18T11:40:16;5.50;;;3.33;;
16922;SDS011;8578;50.938;13.556;2023-11-18T11:42:49;6.07;;;3.50;;
16922;SDS011;8578;50.938;13.556;2023-11-18T11:45:23;5.43;;;3.23;;
16922;SDS011;8578;50.938;13.556;2023-11-18T11:47:54;4.40;;;2.93;;
16922;SDS011;8578;50.938;13.556;2023-11-18T11:50:54;5.40;;;3.07;;
16922;SDS011;8578;50.938;13.556;2023-11-18T11:53:24;5.43;;;3.10;;
16922;SDS011;8578;50.938;13.556;2023-11-18T11:55:53;4.60;;;2.90;;
16922;SDS011;8578;50.938;13.556;2023-11-18T11:58:31;7.43;;;3.53;;
16922;SDS011;8578;50.938;13.556;2023-11-18T12:01:01;3.97;;;2.43;;
16922;SDS011;8578;50.938;13.556;2023-11-18T12:03:38;7.37;;;2.83;;
16922;SDS011;8578;50.938;13.556;2023-11-18T12:06:09;3.77;;;2.47;;
16922;SDS011;8578;50.938;13.556;2023-11-18T12:08:42;5.23;;;2.57;;
16922;SDS011;8578;50.938;13.556;2023-11-18T12:11:11;4.77;;;2.93;;
16922;SDS011;8578;50.938;13.556;2023-11-18T12:13:39;4.10;;;2.50;;
16922;SDS011;8578;50.938;13.556;2023-11-18T12:16:08;4.00;;;2.77;;
16922;SDS011;8578;50.938;13.556;2023-11-18T12:18:37;4.43;;;2.73;;
16922;SDS011;8578;50.938;13.556;2023-11-18T12:21:05;6.27;;;3.07;;
16922;SDS011;8578;50.938;13.556;2023-11-18T12:23:37;3.80;;;2.80;;
16922;SDS011;8578;50.938;13.556;2023-11-18T12:26:39;5.40;;;3.17;;
16922;SDS011;8578;50.938;13.556;2023-11-18T12:31:52;4.73;;;3.03;;
16922;SDS011;8578;50.938;13.556;2023-11-18T12:34:19;3.77;;;2.30;;
16922;SDS011;8578;50.938;13.556;2023-11-18T12:36:56;4.10;;;2.53;;
16922;SDS011;8578;50.938;13.556;2023-11-18T12:42:09;3.33;;;2.63;;
16922;SDS011;8578;50.938;13.556;2023-11-18T12:44:48;6.20;;;2.70;;
16922;SDS011;8578;50.938;13.556;2023-11-18T12:47:26;6.40;;;2.83;;
16922;SDS011;8578;50.938;13.556;2023-11-18T12:49:55;4.53;;;2.70;;
16922;SDS011;8578;50.938;13.556;2023-11-18T12:52:23;5.00;;;2.87;;
16922;SDS011;8578;50.938;13.556;2023-11-18T12:54:54;3.57;;;2.40;;
16922;SDS011;8578;50.938;13.556;2023-11-18T12:57:26;5.20;;;2.77;;
16922;SDS011;8578;50.938;13.556;2023-11-18T12:59:57;3.97;;;2.50;;
16922;SDS011;8578;50.938;13.556;2023-11-18T13:02:26;4.53;;;3.10;;
16922;SDS011;8578;50.938;13.556;2023-11-18T13:04:55;5.30;;;2.83;;
16922;SDS011;8578;50.938;13.556;2023-11-18T13:07:24;4.90;;;3.00;;
16922;SDS011;8578;50.938;13.556;2023-11-18T13:09:51;2.53;;;2.13;;
16922;SDS011;8578;50.938;13.556;2023-11-18T13:12:20;2.77;;;2.03;;
16922;SDS011;8578;50.938;13.556;2023-11-18T13:14:49;4.13;;;2.23;;
16922;SDS011;8578;50.938;13.556;2023-11-18T13:17:18;6.23;;;2.40;;
16922;SDS011;8578;50.938;13.556;2023-11-18T13:19:50;3.17;;;2.10;;
16922;SDS011;8578;50.938;13.556;2023-11-18T13:22:20;5.77;;;2.50;;
16922;SDS011;8578;50.938;13.556;2023-11-18T13:25:04;3.17;;;2.07;;
16922;SDS011;8578;50.938;13.556;2023-11-18T13:27:32;2.07;;;1.70;;
16922;SDS011;8578;50.938;13.556;2023-11-18T13:30:00;5.43;;;2.57;;
16922;SDS011;8578;50.938;13.556;2023-11-18T13:32:29;3.30;;;2.37;;
16922;SDS011;8578;50.938;13.556;2023-11-18T13:35:01;3.67;;;2.27;;
16922;SDS011;8578;50.938;13.556;2023-11-18T13:37:29;3.17;;;2.37;;
16922;SDS011;8578;50.938;13.556;2023-11-18T13:39:57;3.20;;;2.27;;
16922;SDS011;8578;50.938;13.556;2023-11-18T13:42:26;3.43;;;2.37;;
16922;SDS011;8578;50.938;13.556;2023-11-18T13:44:58;3.70;;;2.37;;
16922;SDS011;8578;50.938;13.556;2023-11-18T13:47:26;3.13;;;2.13;;
16922;SDS011;8578;50.938;13.556;2023-11-18T13:49:54;2.70;;;1.93;;
16922;SDS011;8578;50.938;13.556;2023-11-18T13:52:27;4.23;;;1.90;;
16922;SDS011;8578;50.938;13.556;2023-11-18T13:54:59;3.43;;;2.27;;
16922;SDS011;8578;50.938;13.556;2023-11-18T13:57:27;3.20;;;2.10;;
16922;SDS011;8578;50.938;13.556;2023-11-18T13:59:54;3.90;;;1.93;;
16922;SDS011;8578;50.938;13.556;2023-11-18T14:02:22;2.63;;;1.97;;
16922;SDS011;8578;50.938;13.556;2023-11-18T14:04:50;1.93;;;1.63;;
16922;SDS011;8578;50.938;13.556;2023-11-18T14:07:22;3.33;;;1.93;;
16922;SDS011;8578;50.938;13.556;2023-11-18T14:09:52;2.20;;;1.70;;
16922;SDS011;8578;50.938;13.556;2023-11-18T14:12:22;3.97;;;2.20;;
16922;SDS011;8578;50.938;13.556;2023-11-18T14:14:54;4.20;;;2.10;;
16922;SDS011;8578;50.938;13.556;2023-11-18T14:17:23;2.73;;;1.93;;
16922;SDS011;8578;50.938;13.556;2023-11-18T14:19:51;4.47;;;2.40;;
16922;SDS011;8578;50.938;13.556;2023-11-18T14:22:18;3.73;;;2.17;;
16922;SDS011;8578;50.938;13.556;2023-11-18T14:24:46;2.73;;;2.00;;
16922;SDS011;8578;50.938;13.556;2023-11-18T14:27:15;3.30;;;2.07;;
16922;SDS011;8578;50.938;13.556;2023-11-18T14:29:43;6.33;;;2.63;;
16922;SDS011;8578;50.938;13.556;2023-11-18T14:32:12;4.77;;;3.10;;
16922;SDS011;8578;50.938;13.556;2023-11-18T14:34:41;5.43;;;3.00;;
16922;SDS011;8578;50.938;13.556;2023-11-18T14:37:09;5.73;;;3.23;;
16922;SDS011;8578;50.938;13.556;2023-11-18T14:39:37;7.20;;;4.57;;
16922;SDS011;8578;50.938;13.556;2023-11-18T14:42:06;8.60;;;5.07;;
16922;SDS011;8578;50.938;13.556;2023-11-18T14:44:37;6.73;;;4.73;;
16922;SDS011;8578;50.938;13.556;2023-11-18T14:47:05;5.90;;;3.67;;
16922;SDS011;8578;50.938;13.556;2023-11-18T14:49:33;4.07;;;3.00;;
16922;SDS011;8578;50.938;13.556;2023-11-18T14:52:01;4.53;;;3.00;;
16922;SDS011;8578;50.938;13.556;2023-11-18T14:54:29;5.43;;;2.90;;
16922;SDS011;8578;50.938;13.556;2023-11-18T14:57:02;3.53;;;2.70;;
16922;SDS011;8578;50.938;13.556;2023-11-18T14:59:31;9.43;;;3.47;;
16922;SDS011;8578;50.938;13.556;2023-11-18T15:02:00;4.20;;;3.00;;
16922;SDS011;8578;50.938;13.556;2023-11-18T15:04:28;4.83;;;2.97;;
16922;SDS011;8578;50.938;13.556;2023-11-18T15:06:57;4.43;;;2.87;;
16922;SDS011;8578;50.938;13.556;2023-11-18T15:09:25;4.73;;;3.03;;